createdAt,value
2023-05-24T00:01:50.156Z,89.98
2023-05-24T00:04:52.986Z,89.90
2023-05-24T00:07:54.870Z,90.01
2023-05-24T00:10:56.702Z,90.13
2023-05-24T00:13:58.644Z,90.46
2023-05-24T00:17:00.526Z,90.49
2023-05-24T00:20:03.317Z,90.28
2023-05-24T00:23:06.972Z,90.40
2023-05-24T00:26:08.954Z,90.44
2023-05-24T00:29:12.272Z,90.47
2023-05-24T00:32:14.287Z,90.45
2023-05-24T00:35:16.346Z,90.57
2023-05-24T00:38:18.182Z,90.73
2023-05-24T00:41:20.047Z,90.35
2023-05-24T00:44:21.903Z,90.92
2023-05-24T00:47:24.418Z,90.97
2023-05-24T00:50:26.297Z,90.76
2023-05-24T00:53:30.600Z,90.64
2023-05-24T00:56:32.540Z,91.24
2023-05-24T00:59:35.054Z,90.89
2023-05-24T01:02:38.007Z,90.97
2023-05-24T01:05:39.924Z,91.43
2023-05-24T01:09:15.690Z,91.67
2023-05-24T01:12:33.093Z,92.16
2023-05-24T01:15:50.137Z,92.34
2023-05-24T01:18:57.932Z,92.10
2023-05-24T01:22:25.791Z,92.13
2023-05-24T01:25:42.499Z,91.88
2023-05-24T01:28:47.157Z,91.86
2023-05-24T01:31:50.461Z,91.58
2023-05-24T01:34:53.249Z,91.88
2023-05-24T01:37:54.984Z,91.77
2023-05-24T01:41:05.774Z,92.05
2023-05-24T01:44:27.591Z,91.97
2023-05-24T01:47:52.584Z,91.64
2023-05-24T01:51:04.806Z,91.50
2023-05-24T01:54:07.826Z,91.82
2023-05-24T01:57:11.233Z,91.64
2023-05-24T02:00:18.401Z,91.73
2023-05-24T02:03:21.358Z,91.80
2023-05-24T02:06:23.182Z,91.74
2023-05-24T02:09:25.043Z,91.60
2023-05-24T02:12:27.040Z,91.45
2023-05-24T02:15:30.496Z,91.09
2023-05-24T02:18:34.904Z,91.26
2023-05-24T02:21:37.069Z,91.37
2023-05-24T02:24:40.472Z,91.65
2023-05-24T02:27:47.241Z,91.76
2023-05-24T02:30:49.225Z,91.92
2023-05-24T02:33:51.156Z,92.01
2023-05-24T02:36:54.505Z,92.24
2023-05-24T02:39:56.501Z,92.20
2023-05-24T02:42:58.471Z,92.09
2023-05-24T02:46:00.377Z,91.92
2023-05-24T02:49:02.326Z,92.08
2023-05-24T02:52:04.748Z,91.87
2023-05-24T02:55:08.617Z,91.77
2023-05-24T02:58:12.175Z,92.32
2023-05-24T03:01:14.244Z,92.34
2023-05-24T03:04:16.686Z,92.67
2023-05-24T03:07:18.544Z,92.78
2023-05-24T03:10:20.483Z,92.79
2023-05-24T03:13:22.546Z,92.94
2023-05-24T03:16:25.459Z,92.78
2023-05-24T03:19:27.471Z,92.75
2023-05-24T03:22:29.768Z,92.73
2023-05-24T03:25:31.844Z,92.74
2023-05-24T03:28:33.961Z,92.71
2023-05-24T03:31:36.070Z,92.65
2023-05-24T03:34:38.159Z,92.59
2023-05-24T03:37:40.591Z,92.46
2023-05-24T03:40:42.654Z,93.07
2023-05-24T03:43:54.779Z,92.54
2023-05-24T03:46:56.724Z,92.69
2023-05-24T03:49:59.339Z,93.13
2023-05-24T03:53:01.223Z,92.74
2023-05-24T03:56:03.103Z,91.96
2023-05-24T03:59:05.047Z,91.82
2023-05-24T04:02:07.829Z,92.30
2023-05-24T04:05:11.449Z,92.28
2023-05-24T04:08:15.106Z,92.05
2023-05-24T04:11:17.416Z,91.94
2023-05-24T04:14:20.607Z,91.45
2023-05-24T04:17:24.843Z,91.38
2023-05-24T04:20:27.895Z,91.66
2023-05-24T04:23:29.826Z,90.92
2023-05-24T04:26:31.764Z,90.72
2023-05-24T04:29:33.964Z,91.21
2023-05-24T04:32:36.973Z,90.23
2023-05-24T04:35:40.682Z,90.61
2023-05-24T04:38:42.496Z,90.10
2023-05-24T04:41:45.221Z,89.90
2023-05-24T04:44:47.082Z,89.96
2023-05-24T04:47:48.891Z,89.26
2023-05-24T04:50:55.532Z,89.71
2023-05-24T04:53:57.385Z,88.99
2023-05-24T04:56:59.266Z,89.20
2023-05-24T05:00:01.109Z,88.89
2023-05-24T05:03:03.916Z,88.42
2023-05-24T05:06:05.996Z,88.51
2023-05-24T05:09:09.698Z,87.31
2023-05-24T05:12:11.620Z,85.99
2023-05-24T05:15:13.710Z,85.02
2023-05-24T05:18:16.414Z,83.67
2023-05-24T05:21:18.584Z,82.21
2023-05-24T05:24:21.268Z,79.92
2023-05-24T05:27:23.149Z,78.71
2023-05-24T05:30:24.982Z,77.06
2023-05-24T05:33:26.952Z,76.55
2023-05-24T05:36:28.800Z,76.06
2023-05-24T05:39:31.987Z,75.75
2023-05-24T05:42:33.774Z,74.73
2023-05-24T05:45:35.758Z,74.08
2023-05-24T05:48:37.663Z,73.53
2023-05-24T05:51:39.472Z,74.80
2023-05-24T05:54:41.330Z,75.29
2023-05-24T05:57:43.790Z,75.49
2023-05-24T06:00:45.704Z,75.70
2023-05-24T06:03:47.872Z,76.24
2023-05-24T06:06:49.946Z,75.09
2023-05-24T06:09:51.929Z,73.94
2023-05-24T06:12:53.771Z,74.51
2023-05-24T06:15:55.685Z,74.66
2023-05-24T06:19:05.817Z,74.21
2023-05-24T06:22:08.567Z,73.37
2023-05-24T06:25:10.379Z,73.68
2023-05-24T06:28:12.190Z,73.62
2023-05-24T06:31:14.023Z,73.07
2023-05-24T06:34:21.117Z,72.00
2023-05-24T06:37:25.624Z,71.49
2023-05-24T06:40:27.494Z,69.95
2023-05-24T06:43:29.603Z,69.34
2023-05-24T06:46:32.156Z,68.52
2023-05-24T06:49:34.163Z,68.80
2023-05-24T06:52:36.350Z,68.83
2023-05-24T06:55:38.343Z,67.42
2023-05-24T06:58:40.346Z,67.27
2023-05-24T07:01:43.285Z,66.69
2023-05-24T07:04:46.087Z,66.72
2023-05-24T07:07:48.243Z,66.50
2023-05-24T07:10:50.243Z,66.01
2023-05-24T07:13:52.289Z,65.55
2023-05-24T07:16:57.694Z,65.87
2023-05-24T07:20:01.695Z,65.51
2023-05-24T07:23:04.936Z,65.81
2023-05-24T07:26:06.938Z,65.93
2023-05-24T07:29:08.778Z,66.57
2023-05-24T07:32:10.957Z,66.83
2023-05-24T07:35:16.278Z,67.09
2023-05-24T07:38:18.780Z,67.34
2023-05-24T07:41:25.613Z,68.33
2023-05-24T07:44:27.646Z,67.80
2023-05-24T07:47:29.559Z,68.37
2023-05-24T07:50:32.015Z,69.35
2023-05-24T07:53:34.805Z,69.87
2023-05-24T07:56:37.773Z,70.09
2023-05-24T07:59:39.584Z,71.03
2023-05-24T08:02:42.575Z,71.65
2023-05-24T08:05:44.832Z,72.74
2023-05-24T08:08:47.831Z,71.25
2023-05-24T08:11:49.639Z,74.14
2023-05-24T08:14:51.493Z,75.73
2023-05-24T08:17:53.401Z,77.27
2023-05-24T08:20:55.210Z,78.82
2023-05-24T09:39:29.304Z,74.77
2023-05-24T09:42:31.256Z,74.61
2023-05-24T09:45:33.441Z,72.62
2023-05-24T09:48:35.291Z,72.81
2023-05-24T09:51:41.094Z,73.17
2023-05-24T09:54:43.242Z,72.71
2023-05-24T09:57:53.599Z,72.22
2023-05-24T10:01:04.295Z,72.32
2023-05-24T10:04:09.870Z,72.51
2023-05-24T10:07:12.667Z,72.43
2023-05-24T10:10:14.396Z,71.03
2023-05-24T10:13:17.841Z,71.79
2023-05-24T10:16:19.744Z,72.14
2023-05-24T10:19:22.403Z,71.84
2023-05-24T10:22:25.285Z,71.46
2023-05-24T10:25:29.261Z,72.17
2023-05-24T10:28:32.111Z,71.03
2023-05-24T10:31:39.475Z,71.31
2023-05-24T10:34:43.289Z,71.02
2023-05-24T10:37:47.454Z,71.37
2023-05-24T10:40:49.589Z,71.06
2023-05-24T10:44:07.768Z,70.38
2023-05-24T10:47:15.765Z,68.78
2023-05-24T10:50:21.997Z,67.75
2023-05-24T10:53:29.646Z,66.18
2023-05-24T10:56:31.345Z,65.60
2023-05-24T10:59:38.900Z,65.58
2023-05-24T11:02:41.552Z,64.46
2023-05-24T11:05:46.964Z,62.70
2023-05-24T11:08:48.996Z,64.92
2023-05-24T11:11:55.752Z,63.93
2023-05-24T11:14:57.645Z,63.07
2023-05-24T11:18:14.564Z,61.37
2023-05-24T11:21:16.973Z,61.74
2023-05-24T11:24:20.087Z,62.08
2023-05-24T11:27:23.940Z,62.41
2023-05-24T11:30:26.546Z,62.71
2023-05-24T11:33:28.973Z,62.96
2023-05-24T11:36:31.195Z,62.70
2023-05-24T11:39:35.639Z,63.35
2023-05-24T11:42:38.336Z,63.90
2023-05-24T11:45:42.100Z,63.32
2023-05-24T11:48:44.004Z,63.98
2023-05-24T11:51:46.242Z,64.20
2023-05-24T11:54:53.163Z,64.62
2023-05-24T11:57:59.614Z,64.86
2023-05-24T12:01:03.144Z,65.11
2023-05-24T12:04:09.843Z,65.95
2023-05-24T12:07:15.374Z,65.81
2023-05-24T12:10:17.636Z,65.58
2023-05-24T12:13:25.189Z,65.90
2023-05-24T12:16:29.877Z,66.11
2023-05-24T12:19:36.862Z,65.83
2023-05-24T12:22:39.490Z,65.82
2023-05-24T12:25:41.548Z,65.46
2023-05-24T12:28:44.124Z,64.82
2023-05-24T12:31:48.464Z,64.97
2023-05-24T12:34:50.504Z,65.55
2023-05-24T12:37:59.734Z,65.79
2023-05-24T12:41:11.374Z,65.96
2023-05-24T12:44:14.531Z,66.14
2023-05-24T12:47:16.709Z,66.30
2023-05-24T12:50:19.783Z,66.91
2023-05-24T12:53:24.218Z,67.07
2023-05-24T12:56:27.496Z,67.41
2023-05-24T12:59:29.713Z,67.47
2023-05-24T13:02:31.461Z,70.30
2023-05-24T13:05:33.372Z,69.11
2023-05-24T13:08:35.278Z,70.40
2023-05-24T13:11:37.470Z,68.91
2023-05-24T13:14:39.294Z,69.80
2023-05-24T13:17:42.145Z,69.78
2023-05-24T13:20:44.214Z,70.62
2023-05-24T13:23:46.750Z,71.91
2023-05-24T13:26:51.588Z,73.19
2023-05-24T13:33:01.487Z,73.57
2023-05-24T13:36:04.379Z,73.83
2023-05-24T13:42:14.789Z,72.92
2023-05-24T13:45:16.859Z,73.27
2023-05-24T13:48:18.755Z,73.60
2023-05-24T13:51:22.573Z,74.80
2023-05-24T13:54:24.721Z,74.45
2023-05-24T13:57:33.687Z,73.48
2023-05-24T14:00:45.574Z,71.76
2023-05-24T14:03:47.206Z,70.79
2023-05-24T14:06:49.116Z,69.60
2023-05-24T14:09:51.074Z,68.47
2023-05-24T14:13:13.208Z,68.01
2023-05-24T14:16:16.537Z,67.91
2023-05-24T14:19:18.556Z,66.62
2023-05-24T14:22:20.542Z,67.36
2023-05-24T14:25:22.306Z,67.72
2023-05-24T14:28:24.091Z,68.08
2023-05-24T14:31:26.190Z,68.76
2023-05-24T14:34:28.021Z,69.98
2023-05-24T14:37:29.776Z,71.11
2023-05-24T14:40:31.977Z,71.20
2023-05-24T14:43:33.854Z,71.96
2023-05-24T14:46:36.008Z,72.31
2023-05-24T14:49:37.837Z,73.21
2023-05-24T14:52:39.616Z,72.91
2023-05-24T14:55:43.144Z,73.76
2023-05-24T14:58:45.815Z,74.23
2023-05-24T15:01:47.780Z,74.75
2023-05-24T15:04:54.711Z,74.76
2023-05-24T15:07:56.538Z,75.24
2023-05-24T15:10:59.165Z,75.90
2023-05-24T15:14:02.058Z,76.34
2023-05-24T15:17:04.045Z,76.64
2023-05-24T15:20:07.339Z,76.75
2023-05-24T15:23:10.846Z,77.50
2023-05-24T15:26:12.932Z,77.96
2023-05-24T15:29:14.678Z,78.33
2023-05-24T15:32:16.587Z,78.22
2023-05-24T15:35:18.467Z,78.84
2023-05-24T15:38:20.876Z,79.32
2023-05-24T15:41:22.986Z,80.25
2023-05-24T15:44:24.953Z,80.41
2023-05-24T15:47:36.164Z,80.55
2023-05-24T15:51:03.807Z,80.86
2023-05-24T15:54:00.052Z,80.95
2023-05-24T15:57:02.981Z,81.34
2023-05-24T16:00:05.424Z,80.89
2023-05-24T16:03:15.666Z,81.37
2023-05-24T16:06:17.852Z,81.71
2023-05-24T16:09:19.613Z,81.95
2023-05-24T16:12:22.007Z,82.53
2023-05-24T16:15:23.749Z,83.34
2023-05-24T16:18:29.029Z,82.72
2023-05-24T16:21:31.137Z,82.75
2023-05-24T16:24:33.063Z,83.02
2023-05-24T16:27:34.931Z,82.84
2023-05-24T16:30:36.864Z,83.03
2023-05-24T16:33:39.761Z,83.49
2023-05-24T16:36:41.661Z,84.01
2023-05-24T16:39:43.502Z,84.97
2023-05-24T16:42:46.425Z,85.49
2023-05-24T16:45:48.360Z,86.00
2023-05-24T16:48:50.352Z,86.31
2023-05-24T16:51:52.393Z,86.31
2023-05-24T16:54:54.263Z,86.13
2023-05-24T16:57:56.165Z,85.95
2023-05-24T17:00:58.751Z,85.67
2023-05-24T17:04:00.941Z,85.53
2023-05-24T17:07:02.927Z,85.40
2023-05-24T17:10:05.143Z,85.64
2023-05-24T17:13:07.101Z,85.64
2023-05-24T17:16:10.877Z,85.58
2023-05-24T17:19:14.022Z,85.73
2023-05-24T17:22:16.055Z,86.54
2023-05-24T17:25:18.016Z,86.83
2023-05-24T17:28:19.809Z,86.80
2023-05-24T17:31:21.846Z,87.06
2023-05-24T17:34:23.859Z,87.34
2023-05-24T17:37:25.640Z,87.85
2023-05-24T17:40:27.486Z,87.86
2023-05-24T17:43:31.662Z,88.45
2023-05-24T17:46:36.031Z,88.43
2023-05-24T17:49:38.679Z,88.60
2023-05-24T17:52:40.665Z,88.68
2023-05-24T17:55:42.732Z,88.95
2023-05-24T17:58:46.809Z,89.48
2023-05-24T18:01:49.399Z,88.87
2023-05-24T18:04:52.749Z,89.40
2023-05-24T18:07:54.712Z,89.59
2023-05-24T18:10:57.133Z,89.71
2023-05-24T18:14:00.431Z,91.06
2023-05-24T18:17:02.339Z,90.94
2023-05-24T18:20:04.574Z,90.65
2023-05-24T18:23:06.363Z,90.90
2023-05-24T18:26:09.957Z,91.14
2023-05-24T18:29:15.976Z,90.73
2023-05-24T18:32:17.931Z,90.41
2023-05-24T18:35:22.453Z,90.78
2023-05-24T18:38:24.426Z,90.43
2023-05-24T18:41:26.229Z,90.82
2023-05-24T18:44:28.173Z,90.37
2023-05-24T18:47:31.193Z,89.75
2023-05-24T18:50:33.119Z,89.74
2023-05-24T18:53:35.951Z,89.66
2023-05-24T18:56:38.063Z,89.54
2023-05-24T18:59:39.897Z,89.61
2023-05-24T19:02:41.963Z,90.04
2023-05-24T19:05:44.344Z,90.45
2023-05-24T19:08:47.787Z,89.84
2023-05-24T19:11:49.698Z,90.49
2023-05-24T19:14:51.538Z,90.22
2023-05-24T19:17:55.689Z,90.29
2023-05-24T19:20:57.662Z,90.71
2023-05-24T19:23:59.835Z,91.07
2023-05-24T19:27:01.754Z,90.87
2023-05-24T19:30:05.232Z,90.40
2023-05-24T19:33:08.532Z,90.51
2023-05-24T19:36:10.769Z,90.67
2023-05-24T19:39:12.733Z,91.58
2023-05-24T19:42:14.990Z,92.03
2023-05-24T19:45:16.919Z,92.40
2023-05-24T19:48:18.825Z,92.19
2023-05-24T19:51:21.143Z,92.89
2023-05-24T19:54:23.072Z,92.53
2023-05-24T19:57:24.901Z,92.35
2023-05-24T20:00:26.751Z,92.61
2023-05-24T20:03:28.848Z,92.13
2023-05-24T20:06:31.502Z,92.17
2023-05-24T20:09:33.294Z,92.25
2023-05-24T20:12:35.124Z,92.00
2023-05-24T20:15:37.096Z,92.06
2023-05-24T20:18:39.261Z,92.09
2023-05-24T20:21:41.113Z,92.59
2023-05-24T20:24:42.918Z,92.25
2023-05-24T20:27:44.751Z,92.42
2023-05-24T20:30:46.647Z,92.76
2023-05-24T20:33:51.477Z,92.71
2023-05-24T20:36:53.254Z,92.98
2023-05-24T20:39:55.685Z,92.77
2023-05-24T20:42:57.825Z,92.55
2023-05-24T20:46:00.200Z,92.30
2023-05-24T20:49:02.131Z,92.04
2023-05-24T20:52:04.635Z,91.93
2023-05-24T20:55:07.031Z,92.13
2023-05-24T20:58:08.816Z,92.61
2023-05-24T21:01:10.660Z,92.95
2023-05-24T21:04:12.573Z,93.18
2023-05-24T21:07:14.495Z,93.37
2023-05-24T21:10:20.058Z,92.65
2023-05-24T21:13:22.795Z,92.57
2023-05-24T21:16:25.301Z,92.52
2023-05-24T21:19:27.123Z,92.86
2023-05-24T21:22:28.988Z,92.58
2023-05-24T21:25:30.879Z,92.16
2023-05-24T21:28:32.754Z,92.50
2023-05-24T21:31:35.906Z,92.36
2023-05-24T21:34:37.911Z,92.48
2023-05-24T21:37:39.822Z,92.58
2023-05-24T21:40:41.718Z,92.72
2023-05-24T21:43:43.731Z,92.33
2023-05-24T21:46:45.677Z,92.93
2023-05-24T21:49:47.685Z,92.88
2023-05-24T21:52:49.450Z,92.81
2023-05-24T21:55:51.442Z,93.02
2023-05-24T21:58:53.576Z,92.66
2023-05-24T22:01:55.782Z,92.66
2023-05-24T22:04:57.833Z,92.75
2023-05-24T22:07:59.636Z,92.71
2023-05-24T22:11:01.533Z,92.66
2023-05-24T22:14:03.544Z,92.57
2023-05-24T22:17:05.752Z,92.82
2023-05-24T22:20:09.069Z,92.88
2023-05-24T22:23:12.059Z,93.21
2023-05-24T22:26:16.825Z,93.24
2023-05-24T22:29:20.112Z,93.26
2023-05-24T22:32:22.020Z,93.49
2023-05-24T22:35:23.971Z,93.53
2023-05-24T22:38:25.762Z,93.72
2023-05-24T22:41:28.260Z,93.87
2023-05-24T22:44:30.369Z,93.81
2023-05-24T22:47:33.319Z,93.75
2023-05-24T22:50:36.018Z,94.04
2023-05-24T22:53:39.572Z,93.78
2023-05-24T22:56:41.714Z,93.68
2023-05-24T22:59:45.852Z,93.57
2023-05-24T23:02:47.722Z,93.71
2023-05-24T23:05:53.619Z,93.87
2023-05-24T23:08:55.636Z,93.81
2023-05-24T23:11:58.964Z,93.75
2023-05-24T23:15:00.862Z,93.62
2023-05-24T23:18:05.800Z,94.15
2023-05-24T23:21:10.101Z,94.03
2023-05-24T23:24:14.714Z,93.76
2023-05-24T23:27:16.723Z,93.66
2023-05-24T23:30:18.548Z,93.71
2023-05-24T23:33:20.433Z,93.99
2023-05-24T23:36:22.273Z,93.66
2023-05-24T23:39:24.090Z,93.80
2023-05-24T23:42:26.407Z,94.07
2023-05-24T23:45:28.250Z,93.83
2023-05-24T23:48:30.073Z,93.62
2023-05-24T23:51:34.895Z,94.08
2023-05-24T23:54:36.937Z,94.13
2023-05-24T23:57:41.950Z,94.12
